Ny info om parkering ved Klubbhytta PDF Skriv ut E-post
Skrevet av Per Norgaard   
torsdag 17. desember 2015 11:11

Styret i klubben ønsker å korrigere/presisere følgende: All parkering ved Klubbhytta skal kun skje ifm klubbaktivitet. Avinor vil ikke akseptere privat parkering som ikke er klubbrelatert. Misbruk vil utløse bøter, og kan medføre oppsigelse av leieforholdet.

 

 
«StartForrige12345678NesteSiste»

Side 8 av 8
 
METAR
2021/11/29 00:20 ENCN 290020Z AUTO 01011KT 9999 OVC025/// M02/M07 Q1007
TAF
2021/11/28 18:36 TAF TAF ENCN 281700Z 2818/2823 02012KT 9999 FEW010 BKN030 PROB40 2818/2821 2500 -SN BKN008
LN-KFK
Operativ VFR-natt
VFR dag
07:55 - 16:36
Brannvakt
Inaktiv
Banner
Banner
Banner
Banner
Banner